sensor_id;sensor_type;location;lat;lon;timestamp;pressure;altitude;pressure_sealevel;temperature
39959;BMP280;25639;53.634;9.880;2023-05-07T00:00:20;144797.94;;;-31.10
39959;BMP280;25639;53.634;9.880;2023-05-07T00:02:46;144774.53;;;-31.20
39959;BMP280;25639;53.634;9.880;2023-05-07T00:05:12;144775.78;;;-31.20
39959;BMP280;25639;53.634;9.880;2023-05-07T00:07:37;144794.25;;;-31.12
39959;BMP280;25639;53.634;9.880;2023-05-07T00:10:03;144759.78;;;-31.26
39959;BMP280;25639;53.634;9.880;2023-05-07T00:12:29;144745.03;;;-31.32
39959;BMP280;25639;53.634;9.880;2023-05-07T00:14:59;144769.63;;;-31.22
39959;BMP280;25639;53.634;9.880;2023-05-07T00:17:24;144762.25;;;-31.25
39959;BMP280;25639;53.634;9.880;2023-05-07T00:19:49;144683.53;;;-31.58
39959;BMP280;25639;53.634;9.880;2023-05-07T00:22:14;144652.78;;;-31.71
39959;BMP280;25639;53.634;9.880;2023-05-07T00:24:40;144678.63;;;-31.60
39959;BMP280;25639;53.634;9.880;2023-05-07T00:27:05;144667.53;;;-31.65
39959;BMP280;25639;53.634;9.880;2023-05-07T00:29:31;144716.72;;;-31.44
39959;BMP280;25639;53.634;9.880;2023-05-07T00:31:56;144667.53;;;-31.65
39959;BMP280;25639;53.634;9.880;2023-05-07T00:34:21;144670.00;;;-31.64
39959;BMP280;25639;53.634;9.880;2023-05-07T00:36:47;144692.16;;;-31.54
39959;BMP280;25639;53.634;9.880;2023-05-07T00:39:12;144682.31;;;-31.59
39959;BMP280;25639;53.634;9.880;2023-05-07T00:41:37;144688.44;;;-31.56
39959;BMP280;25639;53.634;9.880;2023-05-07T00:44:03;144704.44;;;-31.49
39959;BMP280;25639;53.634;9.880;2023-05-07T00:46:30;144715.50;;;-31.45
39959;BMP280;25639;53.634;9.880;2023-05-07T00:48:56;144671.22;;;-31.63
39959;BMP280;25639;53.634;9.880;2023-05-07T00:51:23;144688.44;;;-31.56
39959;BMP280;25639;53.634;9.880;2023-05-07T00:53:49;144673.72;;;-31.62
39959;BMP280;25639;53.634;9.880;2023-05-07T00:56:14;144693.41;;;-31.54
39959;BMP280;25639;53.634;9.880;2023-05-07T00:58:40;144682.31;;;-31.59
39959;BMP280;25639;53.634;9.880;2023-05-07T01:01:06;144698.31;;;-31.52
39959;BMP280;25639;53.634;9.880;2023-05-07T01:03:31;144715.50;;;-31.45
39959;BMP280;25639;53.634;9.880;2023-05-07T01:05:57;144725.34;;;-31.41
39959;BMP280;25639;53.634;9.880;2023-05-07T01:08:23;144679.84;;;-31.60
39959;BMP280;25639;53.634;9.880;2023-05-07T01:10:51;144667.53;;;-31.65
39959;BMP280;25639;53.634;9.880;2023-05-07T01:13:18;144683.53;;;-31.58
39959;BMP280;25639;53.634;9.880;2023-05-07T01:15:44;144693.41;;;-31.54
39959;BMP280;25639;53.634;9.880;2023-05-07T01:18:09;144699.53;;;-31.51
39959;BMP280;25639;53.634;9.880;2023-05-07T01:20:35;144686.00;;;-31.57
39959;BMP280;25639;53.634;9.880;2023-05-07T01:23:00;144676.16;;;-31.61
39959;BMP280;25639;53.634;9.880;2023-05-07T01:25:26;144651.56;;;-31.71
39959;BMP280;25639;53.634;9.880;2023-05-07T01:27:52;144650.31;;;-31.72
39959;BMP280;25639;53.634;9.880;2023-05-07T01:30:18;144690.94;;;-31.55
39959;BMP280;25639;53.634;9.880;2023-05-07T01:32:49;144609.75;;;-31.89
39959;BMP280;25639;53.634;9.880;2023-05-07T01:35:19;144665.09;;;-31.66
39959;BMP280;25639;53.634;9.880;2023-05-07T01:37:46;144636.78;;;-31.78
39959;BMP280;25639;53.634;9.880;2023-05-07T01:40:12;144662.63;;;-31.67
39959;BMP280;25639;53.634;9.880;2023-05-07T01:42:38;144646.66;;;-31.73
39959;BMP280;25639;53.634;9.880;2023-05-07T01:45:05;144624.47;;;-31.83
39959;BMP280;25639;53.634;9.880;2023-05-07T01:47:30;144619.56;;;-31.85
39959;BMP280;25639;53.634;9.880;2023-05-07T01:49:56;144626.97;;;-31.82
39959;BMP280;25639;53.634;9.880;2023-05-07T01:52:22;144667.53;;;-31.65
39959;BMP280;25639;53.634;9.880;2023-05-07T01:54:47;144609.75;;;-31.89
39959;BMP280;25639;53.634;9.880;2023-05-07T01:57:12;144615.88;;;-31.86
39959;BMP280;25639;53.634;9.880;2023-05-07T01:59:38;144595.00;;;-31.95
39959;BMP280;25639;53.634;9.880;2023-05-07T02:02:03;144651.56;;;-31.71
39959;BMP280;25639;53.634;9.880;2023-05-07T02:04:28;144601.13;;;-31.92
39959;BMP280;25639;53.634;9.880;2023-05-07T02:06:53;144606.03;;;-31.90
39959;BMP280;25639;53.634;9.880;2023-05-07T02:09:19;144599.91;;;-31.93
39959;BMP280;25639;53.634;9.880;2023-05-07T02:11:44;144567.97;;;-32.06
39959;BMP280;25639;53.634;9.880;2023-05-07T02:14:10;144599.91;;;-31.93
39959;BMP280;25639;53.634;9.880;2023-05-07T02:16:36;144567.97;;;-32.06
39959;BMP280;25639;53.634;9.880;2023-05-07T02:19:01;144586.41;;;-31.99
39959;BMP280;25639;53.634;9.880;2023-05-07T02:21:26;144570.44;;;-32.05
39959;BMP280;25639;53.634;9.880;2023-05-07T02:23:51;144606.03;;;-31.90
39959;BMP280;25639;53.634;9.880;2023-05-07T02:26:17;144582.69;;;-32.00
39959;BMP280;25639;53.634;9.880;2023-05-07T02:28:43;144560.56;;;-32.09
39959;BMP280;25639;53.634;9.880;2023-05-07T02:31:08;144587.63;;;-31.98
39959;BMP280;25639;53.634;9.880;2023-05-07T02:33:33;144565.53;;;-32.07
39959;BMP280;25639;53.634;9.880;2023-05-07T02:36:07;144567.97;;;-32.06
39959;BMP280;25639;53.634;9.880;2023-05-07T02:38:34;144540.94;;;-32.18
39959;BMP280;25639;53.634;9.880;2023-05-07T02:40:59;144571.66;;;-32.05
39959;BMP280;25639;53.634;9.880;2023-05-07T02:43:24;144563.06;;;-32.08
39959;BMP280;25639;53.634;9.880;2023-05-07T02:46:00;144500.34;;;-32.35
39959;BMP280;25639;53.634;9.880;2023-05-07T02:48:25;144470.88;;;-32.47
39959;BMP280;25639;53.634;9.880;2023-05-07T02:50:51;144488.09;;;-32.40
39959;BMP280;25639;53.634;9.880;2023-05-07T02:53:16;144462.28;;;-32.50
39959;BMP280;25639;53.634;9.880;2023-05-07T02:55:41;144510.22;;;-32.30
39959;BMP280;25639;53.634;9.880;2023-05-07T02:58:06;144504.03;;;-32.33
39959;BMP280;25639;53.634;9.880;2023-05-07T03:00:32;144469.63;;;-32.47
39959;BMP280;25639;53.634;9.880;2023-05-07T03:02:57;144518.81;;;-32.27
39959;BMP280;25639;53.634;9.880;2023-05-07T03:05:22;144508.94;;;-32.31
39959;BMP280;25639;53.634;9.880;2023-05-07T03:07:47;144459.81;;;-32.51
39959;BMP280;25639;53.634;9.880;2023-05-07T03:10:13;144448.72;;;-32.56
39959;BMP280;25639;53.634;9.880;2023-05-07T03:12:38;144438.94;;;-32.60
39959;BMP280;25639;53.634;9.880;2023-05-07T03:15:03;144485.59;;;-32.41
39959;BMP280;25639;53.634;9.880;2023-05-07T03:17:29;144494.22;;;-32.37
39959;BMP280;25639;53.634;9.880;2023-05-07T03:19:54;144404.53;;;-32.75
39959;BMP280;25639;53.634;9.880;2023-05-07T03:22:19;144430.34;;;-32.64
39959;BMP280;25639;53.634;9.880;2023-05-07T03:24:45;144435.25;;;-32.62
39959;BMP280;25639;53.634;9.880;2023-05-07T03:27:10;144436.47;;;-32.61
39959;BMP280;25639;53.634;9.880;2023-05-07T03:29:36;144418.06;;;-32.69
39959;BMP280;25639;53.634;9.880;2023-05-07T03:32:01;144435.25;;;-32.62
39959;BMP280;25639;53.634;9.880;2023-05-07T03:34:26;144362.75;;;-32.92
39959;BMP280;25639;53.634;9.880;2023-05-07T03:36:51;144378.75;;;-32.85
39959;BMP280;25639;53.634;9.880;2023-05-07T03:39:17;144367.66;;;-32.90
39959;BMP280;25639;53.634;9.880;2023-05-07T03:41:42;144387.34;;;-32.82
39959;BMP280;25639;53.634;9.880;2023-05-07T03:44:07;144364.03;;;-32.91
39959;BMP280;25639;53.634;9.880;2023-05-07T03:46:33;144356.63;;;-32.95
39959;BMP280;25639;53.634;9.880;2023-05-07T03:48:59;144394.72;;;-32.79
39959;BMP280;25639;53.634;9.880;2023-05-07T03:51:24;144419.28;;;-32.68
39959;BMP280;25639;53.634;9.880;2023-05-07T03:53:50;144413.16;;;-32.71
39959;BMP280;25639;53.634;9.880;2023-05-07T03:56:18;144378.75;;;-32.85
39959;BMP280;25639;53.634;9.880;2023-05-07T03:58:43;144432.81;;;-32.63
39959;BMP280;25639;53.634;9.880;2023-05-07T04:01:09;144400.84;;;-32.76
39959;BMP280;25639;53.634;9.880;2023-05-07T04:03:34;144416.84;;;-32.69
39959;BMP280;25639;53.634;9.880;2023-05-07T04:06:00;144458.59;;;-32.52
39959;BMP280;25639;53.634;9.880;2023-05-07T04:08:25;144501.59;;;-32.34
39959;BMP280;25639;53.634;9.880;2023-05-07T04:10:59;144493.00;;;-32.38
39959;BMP280;25639;53.634;9.880;2023-05-07T04:13:25;144463.50;;;-32.50
39959;BMP280;25639;53.634;9.880;2023-05-07T04:15:51;144548.31;;;-32.14
39959;BMP280;25639;53.634;9.880;2023-05-07T04:18:16;144556.94;;;-32.11
39959;BMP280;25639;53.634;9.880;2023-05-07T04:20:42;144517.53;;;-32.27
39959;BMP280;25639;53.634;9.880;2023-05-07T04:23:07;144508.94;;;-32.31
39959;BMP280;25639;53.634;9.880;2023-05-07T04:25:33;144499.13;;;-32.35
39959;BMP280;25639;53.634;9.880;2023-05-07T04:27:58;144579.00;;;-32.02
39959;BMP280;25639;53.634;9.880;2023-05-07T04:30:24;144493.00;;;-32.38
39959;BMP280;25639;53.634;9.880;2023-05-07T04:32:50;144501.59;;;-32.34
39959;BMP280;25639;53.634;9.880;2023-05-07T04:35:15;144479.47;;;-32.43
39959;BMP280;25639;53.634;9.880;2023-05-07T04:37:41;144456.09;;;-32.53
39959;BMP280;25639;53.634;9.880;2023-05-07T04:40:06;144456.09;;;-32.53
39959;BMP280;25639;53.634;9.880;2023-05-07T04:42:32;144501.59;;;-32.34
39959;BMP280;25639;53.634;9.880;2023-05-07T04:44:57;144477.00;;;-32.44
39959;BMP280;25639;53.634;9.880;2023-05-07T04:47:23;144490.53;;;-32.39
39959;BMP280;25639;53.634;9.880;2023-05-07T04:49:48;144480.69;;;-32.43
39959;BMP280;25639;53.634;9.880;2023-05-07T04:52:13;144504.03;;;-32.33
39959;BMP280;25639;53.634;9.880;2023-05-07T04:54:38;144507.72;;;-32.31
39959;BMP280;25639;53.634;9.880;2023-05-07T04:57:04;144504.03;;;-32.33
39959;BMP280;25639;53.634;9.880;2023-05-07T04:59:30;144469.63;;;-32.47
39959;BMP280;25639;53.634;9.880;2023-05-07T05:01:55;144496.69;;;-32.36
39959;BMP280;25639;53.634;9.880;2023-05-07T05:04:20;144467.19;;;-32.48
39959;BMP280;25639;53.634;9.880;2023-05-07T05:06:46;144470.88;;;-32.47
39959;BMP280;25639;53.634;9.880;2023-05-07T05:09:11;144477.00;;;-32.44
39959;BMP280;25639;53.634;9.880;2023-05-07T05:11:36;144440.16;;;-32.60
39959;BMP280;25639;53.634;9.880;2023-05-07T05:14:02;144467.19;;;-32.48
39959;BMP280;25639;53.634;9.880;2023-05-07T05:16:27;144518.81;;;-32.27
39959;BMP280;25639;53.634;9.880;2023-05-07T05:18:52;144520.03;;;-32.26
39959;BMP280;25639;53.634;9.880;2023-05-07T05:21:19;144469.63;;;-32.47
39959;BMP280;25639;53.634;9.880;2023-05-07T05:23:45;144456.09;;;-32.53
39959;BMP280;25639;53.634;9.880;2023-05-07T05:26:10;144493.00;;;-32.38
39959;BMP280;25639;53.634;9.880;2023-05-07T05:28:35;144468.41;;;-32.48
39959;BMP280;25639;53.634;9.880;2023-05-07T05:31:01;144459.81;;;-32.51
39959;BMP280;25639;53.634;9.880;2023-05-07T05:33:26;144408.25;;;-32.73
39959;BMP280;25639;53.634;9.880;2023-05-07T05:35:53;144352.94;;;-32.96
39959;BMP280;25639;53.634;9.880;2023-05-07T05:38:19;144217.88;;;-33.53
39959;BMP280;25639;53.634;9.880;2023-05-07T05:40:44;144224.03;;;-33.50
39959;BMP280;25639;53.634;9.880;2023-05-07T05:43:09;144217.88;;;-33.53
39959;BMP280;25639;53.634;9.880;2023-05-07T05:45:35;144204.38;;;-33.58
39959;BMP280;25639;53.634;9.880;2023-05-07T05:48:00;144235.06;;;-33.45
39959;BMP280;25639;53.634;9.880;2023-05-07T05:50:25;144216.66;;;-33.53
39959;BMP280;25639;53.634;9.880;2023-05-07T05:52:51;144249.81;;;-33.39
39959;BMP280;25639;53.634;9.880;2023-05-07T05:55:16;144240.03;;;-33.43
39959;BMP280;25639;53.634;9.880;2023-05-07T05:57:42;144254.75;;;-33.37
39959;BMP280;25639;53.634;9.880;2023-05-07T06:00:08;144257.22;;;-33.36
39959;BMP280;25639;53.634;9.880;2023-05-07T06:02:33;144209.28;;;-33.56
39959;BMP280;25639;53.634;9.880;2023-05-07T06:04:58;144292.81;;;-33.21
39959;BMP280;25639;53.634;9.880;2023-05-07T06:07:23;144297.72;;;-33.19
39959;BMP280;25639;53.634;9.880;2023-05-07T06:09:49;144313.69;;;-33.13
39959;BMP280;25639;53.634;9.880;2023-05-07T06:12:14;144344.34;;;-33.00
39959;BMP280;25639;53.634;9.880;2023-05-07T06:14:39;144302.63;;;-33.17
39959;BMP280;25639;53.634;9.880;2023-05-07T06:17:06;144305.09;;;-33.16
39959;BMP280;25639;53.634;9.880;2023-05-07T06:19:32;144301.41;;;-33.18
39959;BMP280;25639;53.634;9.880;2023-05-07T06:21:57;144316.13;;;-33.11
39959;BMP280;25639;53.634;9.880;2023-05-07T06:24:22;144298.94;;;-33.19
39959;BMP280;25639;53.634;9.880;2023-05-07T06:26:48;144335.75;;;-33.03
39959;BMP280;25639;53.634;9.880;2023-05-07T06:29:13;144280.53;;;-33.26
39959;BMP280;25639;53.634;9.880;2023-05-07T06:31:38;144279.31;;;-33.27
39959;BMP280;25639;53.634;9.880;2023-05-07T06:34:04;144247.34;;;-33.40
39959;BMP280;25639;53.634;9.880;2023-05-07T06:36:29;144298.94;;;-33.19
39959;BMP280;25639;53.634;9.880;2023-05-07T06:38:55;144357.84;;;-32.94
39959;BMP280;25639;53.634;9.880;2023-05-07T06:41:20;144321.03;;;-33.09
39959;BMP280;25639;53.634;9.880;2023-05-07T06:43:45;144318.56;;;-33.10
39959;BMP280;25639;53.634;9.880;2023-05-07T06:46:11;144361.53;;;-32.92
39959;BMP280;25639;53.634;9.880;2023-05-07T06:48:36;144284.22;;;-33.25
39959;BMP280;25639;53.634;9.880;2023-05-07T06:51:01;144314.91;;;-33.12
39959;BMP280;25639;53.634;9.880;2023-05-07T06:53:26;144340.66;;;-33.01
39959;BMP280;25639;53.634;9.880;2023-05-07T06:55:53;144318.56;;;-33.10
39959;BMP280;25639;53.634;9.880;2023-05-07T06:58:19;144355.41;;;-32.95
39959;BMP280;25639;53.634;9.880;2023-05-07T07:00:44;144350.47;;;-32.97
39959;BMP280;25639;53.634;9.880;2023-05-07T07:03:10;144359.06;;;-32.94
39959;BMP280;25639;53.634;9.880;2023-05-07T07:05:36;144339.44;;;-33.02
39959;BMP280;25639;53.634;9.880;2023-05-07T07:08:01;144411.94;;;-32.71
39959;BMP280;25639;53.634;9.880;2023-05-07T07:10:26;144461.00;;;-32.51
39959;BMP280;25639;53.634;9.880;2023-05-07T07:12:52;144440.16;;;-32.60
39959;BMP280;25639;53.634;9.880;2023-05-07T07:15:19;144481.91;;;-32.42
39959;BMP280;25639;53.634;9.880;2023-05-07T07:17:45;144445.13;;;-32.58
39959;BMP280;25639;53.634;9.880;2023-05-07T07:20:11;144454.88;;;-32.53
39959;BMP280;25639;53.634;9.880;2023-05-07T07:22:36;144477.00;;;-32.44
39959;BMP280;25639;53.634;9.880;2023-05-07T07:25:01;144443.84;;;-32.58
39959;BMP280;25639;53.634;9.880;2023-05-07T07:27:27;144421.75;;;-32.67
39959;BMP280;25639;53.634;9.880;2023-05-07T07:29:52;144500.34;;;-32.35
39959;BMP280;25639;53.634;9.880;2023-05-07T07:32:17;144391.03;;;-32.80
39959;BMP280;25639;53.634;9.880;2023-05-07T07:34:43;144438.94;;;-32.60
39959;BMP280;25639;53.634;9.880;2023-05-07T07:37:08;144441.44;;;-32.59
39959;BMP280;25639;53.634;9.880;2023-05-07T07:39:33;144394.72;;;-32.79
39959;BMP280;25639;53.634;9.880;2023-05-07T07:41:59;144479.47;;;-32.43
39959;BMP280;25639;53.634;9.880;2023-05-07T07:44:25;144382.44;;;-32.84
39959;BMP280;25639;53.634;9.880;2023-05-07T07:46:50;144434.03;;;-32.62
39959;BMP280;25639;53.634;9.880;2023-05-07T07:49:16;144378.75;;;-32.85
39959;BMP280;25639;53.634;9.880;2023-05-07T07:51:41;144407.03;;;-32.73
39959;BMP280;25639;53.634;9.880;2023-05-07T07:54:06;144429.13;;;-32.64
39959;BMP280;25639;53.634;9.880;2023-05-07T07:56:32;144411.94;;;-32.71
39959;BMP280;25639;53.634;9.880;2023-05-07T07:59:01;144422.97;;;-32.67
39959;BMP280;25639;53.634;9.880;2023-05-07T08:01:27;144419.28;;;-32.68
39959;BMP280;25639;53.634;9.880;2023-05-07T08:03:52;144379.97;;;-32.85
39959;BMP280;25639;53.634;9.880;2023-05-07T08:06:18;144395.94;;;-32.78
39959;BMP280;25639;53.634;9.880;2023-05-07T08:08:43;144404.53;;;-32.75
39959;BMP280;25639;53.634;9.880;2023-05-07T08:11:08;144364.03;;;-32.91
39959;BMP280;25639;53.634;9.880;2023-05-07T08:13:34;144394.72;;;-32.79
39959;BMP280;25639;53.634;9.880;2023-05-07T08:15:59;144306.31;;;-33.16
39959;BMP280;25639;53.634;9.880;2023-05-07T08:18:25;144344.34;;;-33.00
39959;BMP280;25639;53.634;9.880;2023-05-07T08:20:50;144405.75;;;-32.74
39959;BMP280;25639;53.634;9.880;2023-05-07T08:23:16;144360.31;;;-32.93
39959;BMP280;25639;53.634;9.880;2023-05-07T08:25:41;144305.09;;;-33.16
39959;BMP280;25639;53.634;9.880;2023-05-07T08:28:07;144280.53;;;-33.26
39959;BMP280;25639;53.634;9.880;2023-05-07T08:30:33;144361.53;;;-32.92
39959;BMP280;25639;53.634;9.880;2023-05-07T08:32:58;144302.63;;;-33.17
39959;BMP280;25639;53.634;9.880;2023-05-07T08:35:23;144357.84;;;-32.94
39959;BMP280;25639;53.634;9.880;2023-05-07T08:37:50;144341.88;;;-33.01
39959;BMP280;25639;53.634;9.880;2023-05-07T08:40:16;144332.06;;;-33.05
39959;BMP280;25639;53.634;9.880;2023-05-07T08:42:41;144319.78;;;-33.10
39959;BMP280;25639;53.634;9.880;2023-05-07T08:45:09;144373.84;;;-32.87
39959;BMP280;25639;53.634;9.880;2023-05-07T08:47:47;144246.13;;;-33.41
39959;BMP280;25639;53.634;9.880;2023-05-07T08:50:15;144297.72;;;-33.19
39959;BMP280;25639;53.634;9.880;2023-05-07T08:52:41;144334.53;;;-33.04
39959;BMP280;25639;53.634;9.880;2023-05-07T08:55:07;144303.84;;;-33.17
39959;BMP280;25639;53.634;9.880;2023-05-07T08:57:32;144291.59;;;-33.22
39959;BMP280;25639;53.634;9.880;2023-05-07T08:59:58;144339.44;;;-33.02
39959;BMP280;25639;53.634;9.880;2023-05-07T09:02:23;144333.28;;;-33.04
39959;BMP280;25639;53.634;9.880;2023-05-07T09:04:48;144324.66;;;-33.08
39959;BMP280;25639;53.634;9.880;2023-05-07T09:07:14;144290.34;;;-33.22
39959;BMP280;25639;53.634;9.880;2023-05-07T09:09:39;144311.22;;;-33.14
39959;BMP280;25639;53.634;9.880;2023-05-07T09:12:04;144340.66;;;-33.01
39959;BMP280;25639;53.634;9.880;2023-05-07T09:14:30;144267.03;;;-33.32
39959;BMP280;25639;53.634;9.880;2023-05-07T09:16:56;144310.00;;;-33.14
39959;BMP280;25639;53.634;9.880;2023-05-07T09:19:26;144241.22;;;-33.43
39959;BMP280;25639;53.634;9.880;2023-05-07T09:22:02;144198.25;;;-33.61
39959;BMP280;25639;53.634;9.880;2023-05-07T09:24:28;144143.06;;;-33.84
39959;BMP280;25639;53.634;9.880;2023-05-07T09:26:57;144292.81;;;-33.21
39959;BMP280;25639;53.634;9.880;2023-05-07T09:29:23;144247.34;;;-33.40
39959;BMP280;25639;53.634;9.880;2023-05-07T09:31:48;144233.84;;;-33.46
39959;BMP280;25639;53.634;9.880;2023-05-07T09:34:14;144189.72;;;-33.64
39959;BMP280;25639;53.634;9.880;2023-05-07T09:36:39;144259.63;;;-33.35
39959;BMP280;25639;53.634;9.880;2023-05-07T09:39:05;144187.25;;;-33.65
39959;BMP280;25639;53.634;9.880;2023-05-07T09:41:31;144323.47;;;-33.08
39959;BMP280;25639;53.634;9.880;2023-05-07T09:43:57;144228.94;;;-33.48
39959;BMP280;25639;53.634;9.880;2023-05-07T09:46:30;144219.16;;;-33.52
39959;BMP280;25639;53.634;9.880;2023-05-07T09:48:57;144204.38;;;-33.58
39959;BMP280;25639;53.634;9.880;2023-05-07T09:51:28;144182.34;;;-33.67
39959;BMP280;25639;53.634;9.880;2023-05-07T09:53:56;144139.38;;;-33.85
39959;BMP280;25639;53.634;9.880;2023-05-07T09:56:21;144135.69;;;-33.87
39959;BMP280;25639;53.634;9.880;2023-05-07T09:58:48;144098.91;;;-34.02
39959;BMP280;25639;53.634;9.880;2023-05-07T10:01:15;144091.53;;;-34.05
39959;BMP280;25639;53.634;9.880;2023-05-07T10:03:43;144065.78;;;-34.16
39959;BMP280;25639;53.634;9.880;2023-05-07T10:06:09;143977.47;;;-34.53
39959;BMP280;25639;53.634;9.880;2023-05-07T10:08:36;144100.13;;;-34.02
39959;BMP280;25639;53.634;9.880;2023-05-07T10:11:04;144089.06;;;-34.06
39959;BMP280;25639;53.634;9.880;2023-05-07T10:13:29;144024.09;;;-34.34
39959;BMP280;25639;53.634;9.880;2023-05-07T10:15:55;144089.06;;;-34.06
39959;BMP280;25639;53.634;9.880;2023-05-07T10:18:21;144008.13;;;-34.40
39959;BMP280;25639;53.634;9.880;2023-05-07T10:20:57;144066.97;;;-34.16
39959;BMP280;25639;53.634;9.880;2023-05-07T10:23:27;144054.75;;;-34.21
39959;BMP280;25639;53.634;9.880;2023-05-07T10:25:53;143941.97;;;-34.68
39959;BMP280;25639;53.634;9.880;2023-05-07T10:28:21;143981.16;;;-34.52
39959;BMP280;25639;53.634;9.880;2023-05-07T10:33:28;144069.47;;;-34.15
39959;BMP280;25639;53.634;9.880;2023-05-07T10:35:59;143941.97;;;-34.68
39959;BMP280;25639;53.634;9.880;2023-05-07T10:38:27;144009.41;;;-34.40
39959;BMP280;25639;53.634;9.880;2023-05-07T10:40:52;144069.47;;;-34.15
39959;BMP280;25639;53.634;9.880;2023-05-07T10:43:18;144043.75;;;-34.25
39959;BMP280;25639;53.634;9.880;2023-05-07T10:45:43;143943.16;;;-34.68
39959;BMP280;25639;53.634;9.880;2023-05-07T10:48:13;144038.78;;;-34.27
39959;BMP280;25639;53.634;9.880;2023-05-07T10:50:40;143994.66;;;-34.46
39959;BMP280;25639;53.634;9.880;2023-05-07T10:55:46;144033.88;;;-34.30
39959;BMP280;25639;53.634;9.880;2023-05-07T11:00:46;143902.75;;;-34.84
39959;BMP280;25639;53.634;9.880;2023-05-07T11:03:11;144017.97;;;-34.36
39959;BMP280;25639;53.634;9.880;2023-05-07T11:05:38;143875.75;;;-34.96
39959;BMP280;25639;53.634;9.880;2023-05-07T11:08:04;143907.66;;;-34.82
39959;BMP280;25639;53.634;9.880;2023-05-07T11:11:02;144040.06;;;-34.27
39959;BMP280;25639;53.634;9.880;2023-05-07T11:16:20;144139.38;;;-33.85
39959;BMP280;25639;53.634;9.880;2023-05-07T11:18:51;144129.59;;;-33.89
39959;BMP280;25639;53.634;9.880;2023-05-07T11:21:34;144247.34;;;-33.40
39959;BMP280;25639;53.634;9.880;2023-05-07T11:24:00;144208.06;;;-33.57
39959;BMP280;25639;53.634;9.880;2023-05-07T11:26:27;144253.53;;;-33.38
39959;BMP280;25639;53.634;9.880;2023-05-07T11:28:53;144204.38;;;-33.58
39959;BMP280;25639;53.634;9.880;2023-05-07T11:31:24;144270.72;;;-33.30
39959;BMP280;25639;53.634;9.880;2023-05-07T11:33:51;144118.53;;;-33.94
39959;BMP280;25639;53.634;9.880;2023-05-07T11:36:17;144086.63;;;-34.07
39959;BMP280;25639;53.634;9.880;2023-05-07T11:38:43;144186.03;;;-33.66
39959;BMP280;25639;53.634;9.880;2023-05-07T11:41:08;144172.53;;;-33.72
39959;BMP280;25639;53.634;9.880;2023-05-07T11:43:33;144069.47;;;-34.15
39959;BMP280;25639;53.634;9.880;2023-05-07T11:46:10;144074.34;;;-34.13
39959;BMP280;25639;53.634;9.880;2023-05-07T11:48:37;144197.06;;;-33.61
39959;BMP280;25639;53.634;9.880;2023-05-07T11:51:05;144079.25;;;-34.11
39959;BMP280;25639;53.634;9.880;2023-05-07T11:53:41;144033.88;;;-34.30
39959;BMP280;25639;53.634;9.880;2023-05-07T11:56:07;144109.94;;;-33.98
39959;BMP280;25639;53.634;9.880;2023-05-07T11:58:33;144038.78;;;-34.27
39959;BMP280;25639;53.634;9.880;2023-05-07T12:00:58;144022.88;;;-34.34
39959;BMP280;25639;53.634;9.880;2023-05-07T12:03:23;143916.22;;;-34.79
39959;BMP280;25639;53.634;9.880;2023-05-07T12:05:49;143968.91;;;-34.57
39959;BMP280;25639;53.634;9.880;2023-05-07T12:08:15;143902.75;;;-34.84
39959;BMP280;25639;53.634;9.880;2023-05-07T12:10:45;143865.97;;;-35.00
39959;BMP280;25639;53.634;9.880;2023-05-07T12:13:17;144021.63;;;-34.35
39959;BMP280;25639;53.634;9.880;2023-05-07T12:15:43;144079.25;;;-34.11
39959;BMP280;25639;53.634;9.880;2023-05-07T12:18:08;144006.91;;;-34.41
39959;BMP280;25639;53.634;9.880;2023-05-07T12:20:35;144042.47;;;-34.26
39959;BMP280;25639;53.634;9.880;2023-05-07T12:23:01;143928.50;;;-34.74
39959;BMP280;25639;53.634;9.880;2023-05-07T12:25:30;144043.75;;;-34.25
39959;BMP280;25639;53.634;9.880;2023-05-07T12:27:56;144060.91;;;-34.18
39959;BMP280;25639;53.634;9.880;2023-05-07T12:30:24;144038.78;;;-34.27
39959;BMP280;25639;53.634;9.880;2023-05-07T12:32:52;143987.28;;;-34.49
39959;BMP280;25639;53.634;9.880;2023-05-07T12:35:26;144070.66;;;-34.14
39959;BMP280;25639;53.634;9.880;2023-05-07T12:37:55;144068.19;;;-34.15
39959;BMP280;25639;53.634;9.880;2023-05-07T12:40:21;144195.78;;;-33.62
39959;BMP280;25639;53.634;9.880;2023-05-07T12:42:46;144162.69;;;-33.76
39959;BMP280;25639;53.634;9.880;2023-05-07T12:45:15;144102.56;;;-34.01
39959;BMP280;25639;53.634;9.880;2023-05-07T12:47:44;144025.31;;;-34.33
39959;BMP280;25639;53.634;9.880;2023-05-07T12:50:11;144041.25;;;-34.26
39959;BMP280;25639;53.634;9.880;2023-05-07T12:52:36;144052.34;;;-34.22
39959;BMP280;25639;53.634;9.880;2023-05-07T12:55:06;144089.06;;;-34.06
39959;BMP280;25639;53.634;9.880;2023-05-07T12:57:38;143998.34;;;-34.44
39959;BMP280;25639;53.634;9.880;2023-05-07T13:00:05;143891.69;;;-34.89
39959;BMP280;25639;53.634;9.880;2023-05-07T13:02:34;143907.66;;;-34.82
39959;BMP280;25639;53.634;9.880;2023-05-07T13:05:02;143710.41;;;-35.65
39959;BMP280;25639;53.634;9.880;2023-05-07T13:07:27;143703.03;;;-35.68
39959;BMP280;25639;53.634;9.880;2023-05-07T13:09:53;143863.47;;;-35.01
39959;BMP280;25639;53.634;9.880;2023-05-07T13:12:18;143978.69;;;-34.53
39959;BMP280;25639;53.634;9.880;2023-05-07T13:14:43;143932.13;;;-34.72
39959;BMP280;25639;53.634;9.880;2023-05-07T13:17:09;143867.16;;;-34.99
39959;BMP280;25639;53.634;9.880;2023-05-07T13:19:34;143787.59;;;-35.33
39959;BMP280;25639;53.634;9.880;2023-05-07T13:22:00;143736.13;;;-35.54
39959;BMP280;25639;53.634;9.880;2023-05-07T13:24:25;143798.59;;;-35.28
39959;BMP280;25639;53.634;9.880;2023-05-07T13:26:50;143823.06;;;-35.18
39959;BMP280;25639;53.634;9.880;2023-05-07T13:29:16;143761.84;;;-35.43
39959;BMP280;25639;53.634;9.880;2023-05-07T13:31:41;143797.38;;;-35.29
39959;BMP280;25639;53.634;9.880;2023-05-07T13:34:09;143628.34;;;-35.99
39959;BMP280;25639;53.634;9.880;2023-05-07T13:36:34;143570.88;;;-36.24
39959;BMP280;25639;53.634;9.880;2023-05-07T13:39:05;143510.91;;;-36.49
39959;BMP280;25639;53.634;9.880;2023-05-07T13:41:31;143437.53;;;-36.79
39959;BMP280;25639;53.634;9.880;2023-05-07T13:43:56;143459.56;;;-36.70
39959;BMP280;25639;53.634;9.880;2023-05-07T13:46:21;143596.53;;;-36.13
39959;BMP280;25639;53.634;9.880;2023-05-07T13:48:47;143530.47;;;-36.40